createdAt,value
2023-12-21T00:01:25.269Z,86.41
2023-12-21T00:04:27.246Z,86.16
2023-12-21T00:07:30.083Z,86.18
2023-12-21T00:10:32.142Z,86.25
2023-12-21T00:13:34.210Z,86.22
2023-12-21T00:16:36.339Z,86.20
2023-12-21T00:19:38.211Z,86.48
2023-12-21T00:22:40.134Z,86.20
2023-12-21T00:25:42.097Z,86.05
2023-12-21T00:28:44.519Z,86.23
2023-12-21T00:31:46.770Z,86.20
2023-12-21T00:34:51.098Z,86.34
2023-12-21T00:37:53.318Z,86.59
2023-12-21T00:40:55.134Z,86.68
2023-12-21T00:43:57.032Z,86.57
2023-12-21T00:46:58.934Z,86.59
2023-12-21T00:50:00.971Z,86.69
2023-12-21T00:53:02.914Z,86.80
2023-12-21T00:56:05.036Z,86.92
2023-12-21T00:59:06.929Z,86.56
2023-12-21T01:02:08.983Z,86.85
2023-12-21T01:05:10.921Z,86.93
2023-12-21T01:08:12.739Z,86.86
2023-12-21T01:11:14.846Z,86.77
2023-12-21T01:14:16.742Z,86.84
2023-12-21T01:17:18.600Z,86.63
2023-12-21T01:20:20.471Z,86.73
2023-12-21T01:23:23.148Z,86.78
2023-12-21T01:26:25.258Z,86.79
2023-12-21T01:29:27.002Z,86.79
2023-12-21T01:32:28.921Z,87.04
2023-12-21T01:35:31.052Z,86.92
2023-12-21T01:38:33.577Z,86.68
2023-12-21T01:41:35.920Z,86.74
2023-12-21T01:44:37.798Z,86.78
2023-12-21T01:47:40.080Z,86.87
2023-12-21T01:50:44.151Z,86.80
2023-12-21T01:53:47.149Z,86.72
2023-12-21T01:56:49.755Z,86.96
2023-12-21T01:59:52.628Z,86.88
2023-12-21T02:02:54.983Z,86.85
2023-12-21T02:05:56.897Z,86.84
2023-12-21T02:08:59.070Z,86.98
2023-12-21T02:12:00.898Z,86.92
2023-12-21T02:15:02.743Z,86.80
2023-12-21T02:18:07.450Z,86.76
2023-12-21T02:21:11.191Z,86.85
2023-12-21T02:24:16.799Z,86.69
2023-12-21T02:27:18.670Z,87.09
2023-12-21T02:30:20.593Z,87.04
2023-12-21T02:33:22.565Z,86.87
2023-12-21T02:36:24.405Z,86.72
2023-12-21T02:39:26.548Z,86.77
2023-12-21T02:42:28.598Z,86.86
2023-12-21T02:45:30.427Z,86.97
2023-12-21T02:48:32.371Z,86.62
2023-12-21T02:51:34.295Z,86.44
2023-12-21T02:54:36.060Z,86.78
2023-12-21T02:57:37.908Z,86.45
2023-12-21T03:00:39.827Z,86.61
2023-12-21T03:03:41.723Z,86.04
2023-12-21T03:06:44.761Z,86.38
2023-12-21T03:09:46.632Z,86.38
2023-12-21T03:12:48.634Z,86.27
2023-12-21T03:15:51.185Z,86.61
2023-12-21T03:18:53.176Z,86.61
2023-12-21T03:21:55.141Z,86.38
2023-12-21T03:24:57.034Z,86.47
2023-12-21T03:27:59.907Z,86.51
2023-12-21T03:31:02.770Z,86.45
2023-12-21T03:34:05.010Z,86.52
2023-12-21T03:37:07.140Z,86.53
2023-12-21T03:40:09.344Z,86.37
2023-12-21T03:43:11.283Z,86.37
2023-12-21T03:46:13.175Z,86.40
2023-12-21T03:49:15.149Z,86.16
2023-12-21T03:52:17.224Z,86.17
2023-12-21T03:55:19.050Z,86.13
2023-12-21T03:58:20.916Z,86.22
2023-12-21T04:01:27.126Z,86.22
2023-12-21T04:04:29.254Z,86.10
2023-12-21T04:07:31.206Z,85.92
2023-12-21T04:10:33.232Z,86.03
2023-12-21T04:13:35.274Z,86.05
2023-12-21T04:16:37.336Z,85.89
2023-12-21T04:19:39.389Z,86.05
2023-12-21T04:22:41.594Z,86.03
2023-12-21T04:25:44.155Z,85.90
2023-12-21T04:28:46.120Z,86.32
2023-12-21T04:31:48.279Z,85.86
2023-12-21T04:34:50.435Z,85.77
2023-12-21T04:37:52.428Z,86.06
2023-12-21T04:40:54.400Z,85.94
2023-12-21T04:43:56.374Z,86.11
2023-12-21T04:46:58.314Z,85.93
2023-12-21T04:50:00.628Z,86.15
2023-12-21T04:53:02.516Z,86.03
2023-12-21T04:56:04.914Z,86.19
2023-12-21T04:59:06.804Z,86.22
2023-12-21T05:02:08.982Z,86.31
2023-12-21T05:05:10.909Z,86.37
2023-12-21T05:08:13.563Z,86.37
2023-12-21T05:11:15.501Z,86.41
2023-12-21T05:14:17.340Z,86.41
2023-12-21T05:17:20.691Z,86.56
2023-12-21T05:20:22.593Z,86.65
2023-12-21T05:23:24.359Z,86.61
2023-12-21T05:26:26.334Z,86.68
2023-12-21T05:29:28.311Z,86.72
2023-12-21T05:32:31.800Z,86.59
2023-12-21T05:35:34.116Z,86.67
2023-12-21T05:38:37.966Z,86.63
2023-12-21T05:41:39.808Z,86.77
2023-12-21T05:44:41.735Z,86.56
2023-12-21T05:47:43.632Z,86.68
2023-12-21T05:50:45.539Z,86.60
2023-12-21T05:53:47.442Z,86.50
2023-12-21T05:56:49.368Z,86.51
2023-12-21T05:59:51.263Z,86.58
2023-12-21T06:02:53.160Z,86.69
2023-12-21T06:05:56.404Z,86.43
2023-12-21T06:08:58.343Z,86.41
2023-12-21T06:12:00.356Z,86.58
2023-12-21T06:15:02.424Z,86.59
2023-12-21T06:18:04.963Z,86.51
2023-12-21T06:21:06.925Z,86.18
2023-12-21T06:24:08.980Z,86.38
2023-12-21T06:27:10.759Z,86.34
2023-12-21T06:30:12.969Z,85.84
2023-12-21T06:33:15.026Z,86.16
2023-12-21T06:36:17.021Z,86.21
2023-12-21T06:39:18.944Z,86.00
2023-12-21T06:42:21.340Z,86.06
2023-12-21T06:45:23.290Z,86.12
2023-12-21T06:48:25.205Z,86.20
2023-12-21T06:51:27.174Z,86.31
2023-12-21T06:54:29.050Z,86.30
2023-12-21T06:57:32.412Z,86.24
2023-12-21T07:00:34.369Z,86.49
2023-12-21T07:03:36.292Z,86.68
2023-12-21T07:06:38.169Z,86.70
2023-12-21T07:09:40.031Z,86.62
2023-12-21T07:12:41.801Z,86.72
2023-12-21T07:15:43.754Z,86.93
2023-12-21T07:18:46.756Z,87.12
2023-12-21T07:21:48.677Z,87.13
2023-12-21T07:24:50.548Z,87.17
2023-12-21T07:27:53.103Z,87.38
2023-12-21T07:30:56.210Z,87.15
2023-12-21T07:33:58.129Z,87.32
2023-12-21T07:36:59.977Z,87.41
2023-12-21T07:40:02.035Z,87.49
2023-12-21T07:43:04.137Z,87.46
2023-12-21T07:46:08.608Z,87.39
2023-12-21T07:49:11.346Z,87.58
2023-12-21T07:52:13.267Z,87.67
2023-12-21T07:55:15.289Z,87.98
2023-12-21T07:58:17.685Z,87.92
2023-12-21T08:01:19.694Z,88.07
2023-12-21T08:04:21.877Z,87.78
2023-12-21T08:07:23.772Z,88.17
2023-12-21T08:10:25.766Z,88.40
2023-12-21T08:13:27.871Z,88.44
2023-12-21T08:16:30.127Z,88.36
2023-12-21T08:19:33.313Z,88.72
2023-12-21T08:22:35.235Z,88.80
2023-12-21T08:25:37.171Z,88.42
2023-12-21T08:28:39.529Z,88.62
2023-12-21T08:31:41.422Z,88.64
2023-12-21T08:34:44.568Z,88.15
2023-12-21T08:37:46.839Z,88.67
2023-12-21T08:40:48.861Z,88.92
2023-12-21T08:43:50.912Z,88.84
2023-12-21T08:46:54.563Z,88.70
2023-12-21T08:50:04.443Z,88.90
2023-12-21T08:53:06.489Z,88.64
2023-12-21T08:56:08.588Z,88.70
2023-12-21T08:59:10.400Z,88.89
2023-12-21T09:02:14.400Z,88.81
2023-12-21T09:05:16.332Z,88.69
2023-12-21T09:08:18.251Z,88.91
2023-12-21T09:11:20.261Z,88.86
2023-12-21T09:14:23.910Z,88.96
2023-12-21T09:17:25.852Z,88.85
2023-12-21T09:20:27.891Z,88.70
2023-12-21T09:23:29.720Z,88.56
2023-12-21T09:26:31.561Z,88.31
2023-12-21T09:29:33.870Z,88.46
2023-12-21T09:32:35.724Z,88.42
2023-12-21T09:35:37.662Z,88.29
2023-12-21T09:38:39.912Z,88.86
2023-12-21T09:41:53.112Z,88.27
2023-12-21T09:44:59.120Z,88.42
2023-12-21T09:48:01.080Z,88.52
2023-12-21T09:51:05.564Z,88.60
2023-12-21T09:54:09.345Z,88.66
2023-12-21T09:57:11.789Z,88.39
2023-12-21T10:00:14.898Z,88.45
2023-12-21T10:03:17.749Z,88.47
2023-12-21T10:06:19.962Z,88.28
2023-12-21T10:09:22.071Z,88.51
2023-12-21T10:12:24.686Z,88.38
2023-12-21T10:15:26.549Z,88.42
2023-12-21T10:18:29.188Z,88.36
2023-12-21T10:21:33.744Z,88.47
2023-12-21T10:24:35.683Z,88.46
2023-12-21T10:27:38.479Z,88.44
2023-12-21T10:30:40.357Z,88.56
2023-12-21T10:33:43.990Z,88.75
2023-12-21T10:36:46.624Z,88.33
2023-12-21T10:39:50.549Z,88.35
2023-12-21T10:42:55.669Z,88.22
2023-12-21T10:45:58.017Z,88.15
2023-12-21T10:49:01.698Z,88.20
2023-12-21T10:52:04.948Z,88.13
2023-12-21T10:55:09.418Z,88.00
2023-12-21T10:58:12.475Z,88.02
2023-12-21T11:01:15.883Z,88.13
2023-12-21T11:04:21.545Z,88.29
2023-12-21T11:07:23.959Z,88.09
2023-12-21T11:10:25.967Z,88.24
2023-12-21T11:13:27.790Z,87.94
2023-12-21T11:16:53.722Z,88.03
2023-12-21T11:19:58.497Z,87.76
2023-12-21T11:23:06.434Z,88.10
2023-12-21T11:26:10.369Z,87.75
2023-12-21T11:29:13.473Z,87.41
2023-12-21T11:32:25.742Z,87.40
2023-12-21T11:35:27.898Z,87.62
2023-12-21T11:39:03.620Z,87.20
2023-12-21T11:42:07.429Z,87.04
2023-12-21T11:45:10.572Z,87.13
2023-12-21T11:48:18.135Z,87.20
2023-12-21T11:51:20.178Z,86.96
2023-12-21T11:54:24.100Z,86.80
2023-12-21T11:57:29.280Z,87.30
2023-12-21T12:00:32.677Z,87.03
2023-12-21T12:03:35.182Z,87.15
2023-12-21T12:06:38.236Z,86.73
2023-12-21T12:09:40.320Z,87.05
2023-12-21T12:12:43.035Z,87.06
2023-12-21T12:15:48.391Z,87.01
2023-12-21T12:18:50.909Z,86.82
2023-12-21T12:21:53.384Z,87.16
2023-12-21T12:24:55.345Z,87.24
2023-12-21T12:27:58.514Z,87.31
2023-12-21T12:31:00.365Z,87.27
2023-12-21T12:34:03.296Z,87.38
2023-12-21T12:37:05.280Z,87.10
2023-12-21T12:40:09.314Z,87.13
2023-12-21T12:43:11.397Z,86.94
2023-12-21T12:46:13.368Z,87.15
2023-12-21T12:49:16.753Z,86.92
2023-12-21T12:52:19.386Z,87.09
2023-12-21T12:55:24.974Z,87.13
2023-12-21T13:01:33.564Z,87.06
2023-12-21T13:04:35.941Z,87.04
2023-12-21T13:07:39.427Z,87.11
2023-12-21T13:10:41.316Z,86.90
2023-12-21T13:13:43.984Z,86.92
2023-12-21T13:16:49.189Z,86.95
2023-12-21T13:19:51.229Z,86.85
2023-12-21T13:22:53.924Z,87.00
2023-12-21T13:25:56.489Z,86.95
2023-12-21T13:28:59.648Z,87.09
2023-12-21T13:32:05.181Z,86.96
2023-12-21T13:35:07.626Z,87.08
2023-12-21T13:38:09.423Z,87.00
2023-12-21T13:41:11.526Z,87.16
2023-12-21T13:44:18.639Z,87.03
2023-12-21T13:47:28.195Z,86.98
2023-12-21T13:50:30.057Z,86.73
2023-12-21T13:53:32.345Z,86.98
2023-12-21T13:56:34.274Z,87.05
2023-12-21T13:59:36.078Z,87.12
2023-12-21T14:02:38.035Z,86.93
2023-12-21T14:05:40.091Z,87.17
2023-12-21T14:08:42.072Z,87.09
2023-12-21T14:11:43.949Z,86.94
2023-12-21T14:14:45.870Z,87.06
2023-12-21T14:17:47.839Z,87.07
2023-12-21T14:20:52.943Z,87.08
2023-12-21T14:23:54.895Z,87.20
2023-12-21T14:26:56.772Z,87.24
2023-12-21T14:29:58.714Z,87.09
2023-12-21T14:33:00.787Z,87.23
2023-12-21T14:36:02.707Z,87.22
2023-12-21T14:39:06.284Z,87.16
2023-12-21T14:42:08.266Z,86.91
2023-12-21T14:45:11.926Z,87.03
2023-12-21T14:48:14.500Z,86.92
2023-12-21T14:51:17.706Z,86.87
2023-12-21T14:54:19.623Z,86.99
2023-12-21T14:57:21.499Z,86.92
2023-12-21T15:00:23.296Z,87.00
2023-12-21T15:03:25.065Z,87.31
2023-12-21T15:06:27.125Z,86.92
2023-12-21T15:09:29.020Z,87.10
2023-12-21T15:12:30.849Z,86.81
2023-12-21T15:15:32.723Z,87.19
2023-12-21T15:18:37.333Z,87.21
2023-12-21T15:21:39.628Z,87.01
2023-12-21T15:24:41.512Z,87.09
2023-12-21T15:27:43.519Z,87.22
2023-12-21T15:30:45.435Z,87.46
2023-12-21T15:33:47.550Z,87.35
2023-12-21T15:36:49.389Z,87.27
2023-12-21T15:39:51.242Z,87.51
2023-12-21T15:42:53.146Z,87.24
2023-12-21T15:45:55.106Z,87.69
2023-12-21T15:48:57.069Z,87.35
2023-12-21T15:51:58.963Z,87.51
2023-12-21T15:55:00.883Z,87.36
2023-12-21T15:58:02.765Z,87.62
2023-12-21T16:01:07.516Z,87.43
2023-12-21T16:04:09.609Z,87.63
2023-12-21T16:07:12.663Z,87.64
2023-12-21T16:10:14.650Z,87.64
2023-12-21T16:13:16.787Z,87.67
2023-12-21T16:16:18.688Z,87.84
2023-12-21T16:19:21.762Z,87.99
2023-12-21T16:22:24.434Z,87.74
2023-12-21T16:25:26.241Z,87.73
2023-12-21T16:28:28.220Z,87.95
2023-12-21T16:31:30.453Z,88.09
2023-12-21T16:34:42.884Z,87.95
2023-12-21T16:37:45.221Z,87.83
2023-12-21T16:40:47.201Z,87.74
2023-12-21T16:43:49.227Z,87.87
2023-12-21T16:46:52.651Z,87.65
2023-12-21T16:49:54.694Z,87.85
2023-12-21T16:52:56.605Z,87.74
2023-12-21T16:55:58.674Z,87.61
2023-12-21T16:59:00.599Z,87.61
2023-12-21T17:02:03.860Z,87.47
2023-12-21T17:05:07.243Z,87.42
2023-12-21T17:08:09.196Z,87.33
2023-12-21T17:11:11.029Z,87.23
2023-12-21T17:14:12.815Z,87.33
2023-12-21T17:17:14.708Z,87.19
2023-12-21T17:20:16.797Z,86.65
2023-12-21T17:23:18.817Z,86.92
2023-12-21T17:26:20.958Z,86.94
2023-12-21T17:29:22.745Z,86.86
2023-12-21T17:32:25.100Z,86.81
2023-12-21T17:35:27.077Z,86.54
2023-12-21T17:38:29.413Z,86.48
2023-12-21T17:41:31.481Z,86.60
2023-12-21T17:44:33.933Z,86.24
2023-12-21T17:47:36.528Z,86.44
2023-12-21T17:50:38.380Z,86.42
2023-12-21T17:53:40.292Z,86.36
2023-12-21T17:56:42.213Z,86.50
2023-12-21T17:59:44.359Z,86.57
2023-12-21T18:02:46.274Z,86.54
2023-12-21T18:05:48.205Z,86.58
2023-12-21T18:08:50.110Z,86.54
2023-12-21T18:11:51.928Z,86.44
2023-12-21T18:14:53.899Z,86.39
2023-12-21T18:17:56.147Z,86.06
2023-12-21T18:20:58.782Z,85.92
2023-12-21T18:24:00.608Z,85.74
2023-12-21T18:27:03.090Z,85.52
2023-12-21T18:30:05.868Z,85.43
2023-12-21T18:33:07.763Z,85.40
2023-12-21T18:36:09.638Z,85.14
2023-12-21T18:39:12.236Z,85.19
2023-12-21T18:42:14.244Z,85.02
2023-12-21T18:45:16.112Z,85.06
2023-12-21T18:48:18.034Z,84.92
2023-12-21T18:51:20.200Z,84.95
2023-12-21T18:54:22.099Z,84.89
2023-12-21T18:57:23.996Z,84.80
2023-12-21T19:00:25.833Z,84.88
2023-12-21T19:03:27.734Z,84.76
2023-12-21T19:06:30.316Z,84.92
2023-12-21T19:09:32.396Z,84.86
2023-12-21T19:12:34.975Z,84.99
2023-12-21T19:15:36.781Z,85.00
2023-12-21T19:18:38.878Z,84.95
2023-12-21T19:21:47.500Z,85.04
2023-12-21T19:24:49.802Z,85.36
2023-12-21T19:27:51.677Z,85.12
2023-12-21T19:30:53.458Z,84.89
2023-12-21T19:33:55.329Z,84.96
2023-12-21T19:36:57.237Z,85.00
2023-12-21T19:39:59.113Z,85.11
2023-12-21T19:43:01.393Z,85.04
2023-12-21T19:46:03.265Z,85.32
2023-12-21T19:49:05.150Z,85.25
2023-12-21T19:52:07.906Z,85.26
2023-12-21T19:55:09.788Z,85.56
2023-12-21T19:58:11.793Z,85.38
2023-12-21T20:01:13.697Z,85.49
2023-12-21T20:04:15.878Z,85.23
2023-12-21T20:07:18.015Z,85.52
2023-12-21T20:10:20.584Z,85.44
2023-12-21T20:13:22.498Z,85.40
2023-12-21T20:16:24.448Z,85.32
2023-12-21T20:19:27.919Z,85.43
2023-12-21T20:22:30.155Z,85.31
2023-12-21T20:25:33.657Z,85.31
2023-12-21T20:28:37.276Z,85.63
2023-12-21T20:31:39.176Z,85.40
2023-12-21T20:34:41.102Z,85.39
2023-12-21T20:37:43.032Z,85.53
2023-12-21T20:40:45.224Z,85.79
2023-12-21T20:43:48.409Z,85.79
2023-12-21T20:46:50.351Z,85.62
2023-12-21T20:49:52.288Z,85.98
2023-12-21T20:52:54.653Z,85.72
2023-12-21T20:55:56.640Z,86.10
2023-12-21T20:58:58.539Z,86.00
2023-12-21T21:02:00.998Z,86.23
2023-12-21T21:05:05.008Z,86.01
2023-12-21T21:08:06.889Z,86.19
2023-12-21T21:11:09.243Z,86.23
2023-12-21T21:14:11.090Z,86.19
2023-12-21T21:17:14.288Z,86.19
2023-12-21T21:20:16.274Z,86.27
2023-12-21T21:23:18.260Z,85.84
2023-12-21T21:26:21.671Z,86.23
2023-12-21T21:29:23.534Z,86.38
2023-12-21T21:32:25.311Z,86.29
2023-12-21T21:35:27.132Z,86.37
2023-12-21T21:38:28.914Z,86.50
2023-12-21T21:41:30.890Z,86.42
2023-12-21T21:44:32.861Z,86.26
2023-12-21T21:47:34.798Z,86.54
2023-12-21T21:50:36.793Z,86.29
2023-12-21T21:53:38.673Z,86.40
2023-12-21T21:56:40.710Z,86.39
2023-12-21T21:59:42.525Z,86.33
2023-12-21T22:02:44.357Z,86.40
2023-12-21T22:05:46.283Z,86.50
2023-12-21T22:08:49.025Z,86.22
2023-12-21T22:11:51.064Z,86.39
2023-12-21T22:14:54.757Z,86.60
2023-12-21T22:17:56.727Z,86.30
2023-12-21T22:20:58.703Z,86.36
2023-12-21T22:24:01.087Z,86.51
2023-12-21T22:27:03.006Z,86.58
2023-12-21T22:30:05.871Z,86.36
2023-12-21T22:33:07.755Z,86.16
2023-12-21T22:36:10.094Z,86.23
2023-12-21T22:39:12.209Z,86.28
2023-12-21T22:42:15.898Z,86.20
2023-12-21T22:45:17.844Z,86.26
2023-12-21T22:48:22.076Z,86.14
2023-12-21T22:51:24.086Z,86.20
2023-12-21T22:54:25.945Z,85.93
2023-12-21T22:57:29.498Z,86.08
2023-12-21T23:00:32.621Z,86.13
2023-12-21T23:03:35.629Z,86.08
2023-12-21T23:06:38.312Z,86.02
2023-12-21T23:09:42.368Z,86.12
2023-12-21T23:12:47.457Z,86.06
2023-12-21T23:15:51.192Z,85.92
2023-12-21T23:18:53.198Z,86.00
2023-12-21T23:21:55.180Z,86.21
2023-12-21T23:24:57.940Z,86.16
2023-12-21T23:27:59.879Z,86.05
2023-12-21T23:31:01.810Z,86.09
2023-12-21T23:34:03.858Z,86.03
2023-12-21T23:37:05.883Z,86.16
2023-12-21T23:40:10.561Z,85.76
2023-12-21T23:43:12.921Z,85.95
2023-12-21T23:46:14.987Z,85.97
2023-12-21T23:49:17.084Z,86.06
2023-12-21T23:52:19.147Z,85.81
2023-12-21T23:55:21.161Z,85.86
2023-12-21T23:58:23.558Z,85.87
